Trang, Thailand

3:04 PM ICT on September 25, 2016 (GMT +0700)
Trang | | Change Station

Elev 52 ft 7.51 °N, 99.62 °E | Updated 1 hour ago

Scattered Clouds
Scattered Clouds
91 °F
Feels Like 100 °F
N
12
Wind Variable Wind from West

Today
High -- | Low -- °F
--% Chance of Precip.
Yesterday
High -- | Low -- °F
Precip. -- in
Pressure 29.71 in
Visibility 6.2 miles
Clouds Scattered Clouds 2000 ft
Heat Index 100 °F
Dew Point 73 °F
Humidity 55%
Rainfall 0.00 in
Snow Depth Not available.
6:10 AM 6:15 PM
Waning Crescent, 30% visible
METAR VTST 250700Z 27010KT 9999 SCT020 33/23 Q1006 RWY26 INFO H
Pressure 29.71 in
Visibility 6.2 miles
Clouds Scattered Clouds 2000 ft
Heat Index 100 °F
Dew Point 73 °F
Humidity 55%
Rainfall 0.00 in
Snow Depth Not available.
6:10 AM 6:15 PM
Waning Crescent, 30% visible
METAR VTST 250700Z 27010KT 9999 SCT020 33/23 Q1006 RWY26 INFO H

10-Day Weather Forecast

No radar image for this location.
×

Almanac

Astronomy

Sep. 25, 2016 Rise Set
Actual Time
Civil Twilight
Nautical Twilight
Astronomical Twilight
Moon
Length of Visible Light
Length of Day
Tomorrow will be .
, % of the Moon is Illuminated

Today's Extremes

Country Highs Country Lows

Community

WunderPhotos

Upload Photos

1,941,554 photos uploaded!

WunderBlog® & News

Nearby

Air Quality

  Air Quality AQ Index Pollutant
Not available.

Snow Depth

Station Depth Elevation

Earthquake Activity

City Distance Mag. Time & Date
Minimum magnitude displayed is 2.5.

Coastal Water Temperatures

Place Temperature

Stations

Nearby Weather Stations

Station Location Temp. Windchill Dew Point Humidity Wind Precip. Elev Updated Type